Weather Conditions for: Burbank, Burbank-Glendale-Pasadena Airport, CA (KBUR)Elev: 774 ft; Latitude: 34.19972; Longitude: -118.36472

Time                                   Temp. Relative Humidity Wind Direction Wind Speed
(PDT)  (f) (%) (mph)
12 May 9:53 pm PDT 75 13 NW 6
12 May 8:53 pm PDT 78 12 WNW 7
12 May 7:53 pm PDT 80 10 W 16
12 May 6:53 pm PDT 85 8 WSW 17
12 May 6:40 pm PDT 84 8 W 16G23
12 May 6:27 pm PDT 86 8 WSW 24G30
12 May 5:53 pm PDT 87 8 ESE 10
12 May 4:53 pm PDT 88 6 S 13
12 May 4:23 pm PDT 88 7 SE 13
12 May 3:53 pm PDT 88 7 SSW 16G23
12 May 2:53 pm PDT 89 7 S 16G22
12 May 1:53 pm PDT 87 7 S 9G24
12 May 12:53 pm PDT 86 7 S 13G16
12 May 11:53 am PDT 84 7 W 8
12 May 10:53 am PDT 83 8 ESE 3
12 May 9:53 am PDT 81 8 S 7
12 May 8:53 am PDT 77 14 VRBL 6
12 May 7:53 am PDT 72 17 NNE 9
12 May 6:53 am PDT 63 23 WSW 8
12 May 5:53 am PDT 62 21 W 7

http://www.wrh.noaa.gov/mesowest/getobext.php?wfo=lox&sid=KBUR&num=168&raw=0&dbn=m
Burbank, CA postcard